sensor_id;sensor_type;location;lat;lon;timestamp;pressure;altitude;pressure_sealevel;temperature;humidity
77019;BME280;66044;53.142;17.962;2023-05-07T00:01:12;101819.98;;;7.20;72.00
77019;BME280;66044;53.142;17.962;2023-05-07T00:03:38;101814.96;;;7.15;71.93
77019;BME280;66044;53.142;17.962;2023-05-07T00:06:05;101818.67;;;7.10;72.00
77019;BME280;66044;53.142;17.962;2023-05-07T00:08:31;101816.81;;;7.07;71.94
77019;BME280;66044;53.142;17.962;2023-05-07T00:10:58;101811.48;;;7.03;71.90
77019;BME280;66044;53.142;17.962;2023-05-07T00:13:24;101810.59;;;6.99;72.08
77019;BME280;66044;53.142;17.962;2023-05-07T00:15:51;101810.86;;;6.93;72.03
77019;BME280;66044;53.142;17.962;2023-05-07T00:18:17;101807.59;;;6.87;71.99
77019;BME280;66044;53.142;17.962;2023-05-07T00:20:47;101814.98;;;6.84;72.02
77019;BME280;66044;53.142;17.962;2023-05-07T00:23:13;101818.77;;;6.79;72.16
77019;BME280;66044;53.142;17.962;2023-05-07T00:25:39;101815.75;;;6.74;71.98
77019;BME280;66044;53.142;17.962;2023-05-07T00:28:06;101816.45;;;6.69;72.10
77019;BME280;66044;53.142;17.962;2023-05-07T00:30:32;101817.58;;;6.65;72.07
77019;BME280;66044;53.142;17.962;2023-05-07T00:32:59;101820.00;;;6.61;72.28
77019;BME280;66044;53.142;17.962;2023-05-07T00:35:25;101818.89;;;6.56;72.23
77019;BME280;66044;53.142;17.962;2023-05-07T00:37:51;101824.23;;;6.50;72.12
77019;BME280;66044;53.142;17.962;2023-05-07T00:40:18;101823.39;;;6.41;72.31
77019;BME280;66044;53.142;17.962;2023-05-07T00:42:44;101821.16;;;6.35;72.18
77019;BME280;66044;53.142;17.962;2023-05-07T00:45:13;101823.73;;;6.31;72.29
77019;BME280;66044;53.142;17.962;2023-05-07T00:47:40;101824.15;;;6.25;72.37
77019;BME280;66044;53.142;17.962;2023-05-07T00:50:08;101829.23;;;6.16;72.33
77019;BME280;66044;53.142;17.962;2023-05-07T00:52:36;101831.15;;;6.08;72.46
77019;BME280;66044;53.142;17.962;2023-05-07T00:55:05;101839.27;;;6.02;72.59
77019;BME280;66044;53.142;17.962;2023-05-07T00:57:36;101835.15;;;5.95;72.51
77019;BME280;66044;53.142;17.962;2023-05-07T01:00:04;101836.20;;;5.90;72.66
77019;BME280;66044;53.142;17.962;2023-05-07T01:02:31;101841.83;;;5.85;72.71
77019;BME280;66044;53.142;17.962;2023-05-07T01:04:57;101837.38;;;5.78;72.85
77019;BME280;66044;53.142;17.962;2023-05-07T01:07:24;101834.77;;;5.71;72.90
77019;BME280;66044;53.142;17.962;2023-05-07T01:09:51;101838.13;;;5.68;73.02
77019;BME280;66044;53.142;17.962;2023-05-07T01:12:17;101835.34;;;5.64;73.07
77019;BME280;66044;53.142;17.962;2023-05-07T01:14:44;101835.66;;;5.61;72.95
77019;BME280;66044;53.142;17.962;2023-05-07T01:17:10;101838.10;;;5.59;72.88
77019;BME280;66044;53.142;17.962;2023-05-07T01:19:37;101837.61;;;5.57;72.78
77019;BME280;66044;53.142;17.962;2023-05-07T01:22:07;101836.49;;;5.55;72.69
77019;BME280;66044;53.142;17.962;2023-05-07T01:24:36;101837.97;;;5.51;72.75
77019;BME280;66044;53.142;17.962;2023-05-07T01:27:03;101840.31;;;5.47;72.74
77019;BME280;66044;53.142;17.962;2023-05-07T01:29:29;101843.02;;;5.44;73.03
77019;BME280;66044;53.142;17.962;2023-05-07T01:32:00;101845.04;;;5.42;73.05
77019;BME280;66044;53.142;17.962;2023-05-07T01:34:30;101851.10;;;5.39;73.16
77019;BME280;66044;53.142;17.962;2023-05-07T01:36:59;101850.87;;;5.35;73.07
77019;BME280;66044;53.142;17.962;2023-05-07T01:39:26;101850.11;;;5.31;73.26
77019;BME280;66044;53.142;17.962;2023-05-07T01:41:54;101850.20;;;5.28;72.98
77019;BME280;66044;53.142;17.962;2023-05-07T01:44:22;101849.77;;;5.24;73.08
77019;BME280;66044;53.142;17.962;2023-05-07T01:46:49;101853.42;;;5.20;73.01
77019;BME280;66044;53.142;17.962;2023-05-07T01:49:16;101856.33;;;5.15;72.85
77019;BME280;66044;53.142;17.962;2023-05-07T01:51:43;101859.65;;;5.08;73.09
77019;BME280;66044;53.142;17.962;2023-05-07T01:54:09;101855.64;;;5.01;73.05
77019;BME280;66044;53.142;17.962;2023-05-07T01:56:36;101858.85;;;4.96;73.27
77019;BME280;66044;53.142;17.962;2023-05-07T01:59:02;101861.45;;;4.93;73.02
77019;BME280;66044;53.142;17.962;2023-05-07T02:01:29;101860.79;;;4.89;72.74
77019;BME280;66044;53.142;17.962;2023-05-07T02:03:56;101861.57;;;4.86;72.91
77019;BME280;66044;53.142;17.962;2023-05-07T02:06:22;101863.35;;;4.83;72.85
77019;BME280;66044;53.142;17.962;2023-05-07T02:08:48;101862.71;;;4.79;72.81
77019;BME280;66044;53.142;17.962;2023-05-07T02:11:15;101862.95;;;4.77;72.83
77019;BME280;66044;53.142;17.962;2023-05-07T02:13:42;101859.58;;;4.74;72.73
77019;BME280;66044;53.142;17.962;2023-05-07T02:16:08;101858.54;;;4.69;72.97
77019;BME280;66044;53.142;17.962;2023-05-07T02:18:35;101859.10;;;4.65;72.78
77019;BME280;66044;53.142;17.962;2023-05-07T02:21:02;101861.45;;;4.59;72.61
77019;BME280;66044;53.142;17.962;2023-05-07T02:23:28;101865.63;;;4.55;72.63
77019;BME280;66044;53.142;17.962;2023-05-07T02:25:54;101869.65;;;4.53;72.67
77019;BME280;66044;53.142;17.962;2023-05-07T02:28:21;101874.70;;;4.50;72.64
77019;BME280;66044;53.142;17.962;2023-05-07T02:30:47;101879.51;;;4.47;72.82
77019;BME280;66044;53.142;17.962;2023-05-07T02:33:14;101876.83;;;4.45;72.59
77019;BME280;66044;53.142;17.962;2023-05-07T02:35:40;101878.14;;;4.41;72.77
77019;BME280;66044;53.142;17.962;2023-05-07T02:38:07;101879.73;;;4.36;72.61
77019;BME280;66044;53.142;17.962;2023-05-07T02:40:33;101873.27;;;4.32;72.83
77019;BME280;66044;53.142;17.962;2023-05-07T02:42:59;101881.64;;;4.27;72.89
77019;BME280;66044;53.142;17.962;2023-05-07T02:45:26;101882.14;;;4.23;72.90
77019;BME280;66044;53.142;17.962;2023-05-07T02:47:52;101881.48;;;4.20;72.65
77019;BME280;66044;53.142;17.962;2023-05-07T02:50:19;101883.69;;;4.17;72.69
77019;BME280;66044;53.142;17.962;2023-05-07T02:52:45;101881.16;;;4.14;72.58
77019;BME280;66044;53.142;17.962;2023-05-07T02:55:13;101880.41;;;4.13;72.65
77019;BME280;66044;53.142;17.962;2023-05-07T02:57:39;101882.20;;;4.10;72.73
77019;BME280;66044;53.142;17.962;2023-05-07T03:00:16;101883.50;;;4.09;72.68
77019;BME280;66044;53.142;17.962;2023-05-07T03:02:46;101881.88;;;4.07;72.69
77019;BME280;66044;53.142;17.962;2023-05-07T03:05:13;101883.73;;;4.03;72.70
77019;BME280;66044;53.142;17.962;2023-05-07T03:07:40;101887.35;;;4.01;72.65
77019;BME280;66044;53.142;17.962;2023-05-07T03:10:10;101892.35;;;4.00;72.72
77019;BME280;66044;53.142;17.962;2023-05-07T03:12:37;101893.15;;;4.01;72.75
77019;BME280;66044;53.142;17.962;2023-05-07T03:15:04;101894.30;;;4.03;72.83
77019;BME280;66044;53.142;17.962;2023-05-07T03:17:30;101897.93;;;4.04;72.90
77019;BME280;66044;53.142;17.962;2023-05-07T03:19:56;101900.60;;;4.07;72.66
77019;BME280;66044;53.142;17.962;2023-05-07T03:22:23;101904.74;;;4.07;72.68
77019;BME280;66044;53.142;17.962;2023-05-07T03:24:49;101905.75;;;4.07;72.42
77019;BME280;66044;53.142;17.962;2023-05-07T03:27:16;101909.65;;;4.08;72.55
77019;BME280;66044;53.142;17.962;2023-05-07T03:29:42;101908.94;;;4.10;72.57
77019;BME280;66044;53.142;17.962;2023-05-07T03:32:08;101914.17;;;4.13;72.48
77019;BME280;66044;53.142;17.962;2023-05-07T03:34:35;101914.29;;;4.15;72.40
77019;BME280;66044;53.142;17.962;2023-05-07T03:37:01;101913.66;;;4.16;72.15
77019;BME280;66044;53.142;17.962;2023-05-07T03:39:28;101917.59;;;4.20;72.27
77019;BME280;66044;53.142;17.962;2023-05-07T03:41:54;101923.58;;;4.24;72.17
77019;BME280;66044;53.142;17.962;2023-05-07T03:44:21;101926.11;;;4.27;72.16
77019;BME280;66044;53.142;17.962;2023-05-07T03:46:47;101931.02;;;4.30;72.17
77019;BME280;66044;53.142;17.962;2023-05-07T03:49:14;101927.40;;;4.35;72.01
77019;BME280;66044;53.142;17.962;2023-05-07T03:51:40;101931.72;;;4.42;71.97
77019;BME280;66044;53.142;17.962;2023-05-07T03:54:07;101928.64;;;4.49;71.79
77019;BME280;66044;53.142;17.962;2023-05-07T03:56:33;101936.25;;;4.55;71.80
77019;BME280;66044;53.142;17.962;2023-05-07T03:59:01;101936.14;;;4.62;71.75
77019;BME280;66044;53.142;17.962;2023-05-07T04:01:27;101940.60;;;4.75;71.60
77019;BME280;66044;53.142;17.962;2023-05-07T04:03:54;101940.58;;;4.87;71.51
77019;BME280;66044;53.142;17.962;2023-05-07T04:06:21;101945.58;;;5.02;71.31
77019;BME280;66044;53.142;17.962;2023-05-07T04:08:48;101947.26;;;5.17;71.05
77019;BME280;66044;53.142;17.962;2023-05-07T04:11:14;101951.81;;;5.31;70.66
77019;BME280;66044;53.142;17.962;2023-05-07T04:13:41;101955.06;;;5.49;70.78
77019;BME280;66044;53.142;17.962;2023-05-07T04:16:07;101953.26;;;5.68;70.27
77019;BME280;66044;53.142;17.962;2023-05-07T04:18:33;101955.75;;;5.88;70.05
77019;BME280;66044;53.142;17.962;2023-05-07T04:21:00;101963.11;;;6.25;69.75
77019;BME280;66044;53.142;17.962;2023-05-07T04:23:26;101970.89;;;7.53;68.37
77019;BME280;66044;53.142;17.962;2023-05-07T04:25:53;101970.09;;;9.45;66.09
77019;BME280;66044;53.142;17.962;2023-05-07T04:28:20;101979.73;;;11.44;63.93
77019;BME280;66044;53.142;17.962;2023-05-07T04:30:46;101985.20;;;13.33;61.21
77019;BME280;66044;53.142;17.962;2023-05-07T04:33:14;101985.82;;;14.98;57.86
77019;BME280;66044;53.142;17.962;2023-05-07T04:35:41;101990.55;;;16.41;54.23
77019;BME280;66044;53.142;17.962;2023-05-07T04:38:07;102000.06;;;17.62;50.08
77019;BME280;66044;53.142;17.962;2023-05-07T04:40:35;102002.13;;;18.63;47.80
77019;BME280;66044;53.142;17.962;2023-05-07T04:43:02;102006.43;;;19.58;46.07
77019;BME280;66044;53.142;17.962;2023-05-07T04:45:28;102016.17;;;20.70;45.60
77019;BME280;66044;53.142;17.962;2023-05-07T04:47:54;102023.84;;;21.92;43.30
77019;BME280;66044;53.142;17.962;2023-05-07T04:50:21;102024.58;;;23.07;41.63
77019;BME280;66044;53.142;17.962;2023-05-07T04:52:49;102025.20;;;24.13;39.97
77019;BME280;66044;53.142;17.962;2023-05-07T04:55:16;102030.63;;;25.11;37.90
77019;BME280;66044;53.142;17.962;2023-05-07T04:57:42;102036.14;;;26.03;36.86
77019;BME280;66044;53.142;17.962;2023-05-07T05:00:09;102039.61;;;26.87;35.35
77019;BME280;66044;53.142;17.962;2023-05-07T05:02:36;102037.45;;;27.70;34.40
77019;BME280;66044;53.142;17.962;2023-05-07T05:05:03;102043.46;;;28.53;32.41
77019;BME280;66044;53.142;17.962;2023-05-07T05:07:29;102044.39;;;29.29;31.73
77019;BME280;66044;53.142;17.962;2023-05-07T05:09:56;102053.23;;;29.98;30.74
77019;BME280;66044;53.142;17.962;2023-05-07T05:12:23;102054.95;;;30.71;29.86
77019;BME280;66044;53.142;17.962;2023-05-07T05:14:50;102056.84;;;31.45;28.59
77019;BME280;66044;53.142;17.962;2023-05-07T05:17:17;102060.20;;;32.18;28.21
77019;BME280;66044;53.142;17.962;2023-05-07T05:19:44;102062.27;;;32.89;26.84
77019;BME280;66044;53.142;17.962;2023-05-07T05:22:10;102063.34;;;33.56;26.07
77019;BME280;66044;53.142;17.962;2023-05-07T05:24:36;102063.61;;;34.17;25.21
77019;BME280;66044;53.142;17.962;2023-05-07T05:27:03;102068.61;;;34.72;24.50
77019;BME280;66044;53.142;17.962;2023-05-07T05:29:30;102071.26;;;35.31;24.03
77019;BME280;66044;53.142;17.962;2023-05-07T05:31:57;102073.20;;;35.84;23.08
77019;BME280;66044;53.142;17.962;2023-05-07T05:34:24;102073.36;;;36.41;22.69
77019;BME280;66044;53.142;17.962;2023-05-07T05:36:50;102076.70;;;36.94;21.95
77019;BME280;66044;53.142;17.962;2023-05-07T05:39:17;102075.45;;;37.42;21.40
77019;BME280;66044;53.142;17.962;2023-05-07T05:41:43;102076.94;;;37.92;20.83
77019;BME280;66044;53.142;17.962;2023-05-07T05:44:10;102071.83;;;38.46;20.27
77019;BME280;66044;53.142;17.962;2023-05-07T05:46:36;102075.02;;;39.02;19.67
77019;BME280;66044;53.142;17.962;2023-05-07T05:49:02;102075.77;;;39.47;19.14
77019;BME280;66044;53.142;17.962;2023-05-07T05:51:29;102080.13;;;39.96;18.67
77019;BME280;66044;53.142;17.962;2023-05-07T05:53:55;102080.25;;;40.40;18.19
77019;BME280;66044;53.142;17.962;2023-05-07T05:56:22;102081.92;;;40.88;17.80
77019;BME280;66044;53.142;17.962;2023-05-07T05:58:48;102088.48;;;41.41;17.15
77019;BME280;66044;53.142;17.962;2023-05-07T06:01:14;102091.28;;;41.81;16.74
77019;BME280;66044;53.142;17.962;2023-05-07T06:03:41;102087.02;;;42.17;16.42
77019;BME280;66044;53.142;17.962;2023-05-07T06:06:07;102088.61;;;42.48;15.89
77019;BME280;66044;53.142;17.962;2023-05-07T06:08:34;102089.80;;;42.78;15.70
77019;BME280;66044;53.142;17.962;2023-05-07T06:11:01;102089.34;;;43.16;15.41
77019;BME280;66044;53.142;17.962;2023-05-07T06:13:28;102084.02;;;43.33;14.92
77019;BME280;66044;53.142;17.962;2023-05-07T06:15:54;102085.90;;;43.67;14.86
77019;BME280;66044;53.142;17.962;2023-05-07T06:18:21;102083.90;;;44.13;14.57
77019;BME280;66044;53.142;17.962;2023-05-07T06:20:47;102085.45;;;44.58;14.18
77019;BME280;66044;53.142;17.962;2023-05-07T06:23:14;102085.73;;;44.72;13.64
77019;BME280;66044;53.142;17.962;2023-05-07T06:25:40;102088.87;;;44.88;13.54
77019;BME280;66044;53.142;17.962;2023-05-07T06:28:06;102092.82;;;45.31;13.60
77019;BME280;66044;53.142;17.962;2023-05-07T06:30:35;102092.86;;;45.81;13.27
77019;BME280;66044;53.142;17.962;2023-05-07T06:33:02;102092.11;;;46.27;12.88
77019;BME280;66044;53.142;17.962;2023-05-07T06:35:28;102096.11;;;46.38;11.51
77019;BME280;66044;53.142;17.962;2023-05-07T06:37:55;102093.08;;;45.17;10.99
77019;BME280;66044;53.142;17.962;2023-05-07T06:40:21;102085.03;;;44.54;11.69
77019;BME280;66044;53.142;17.962;2023-05-07T06:42:47;102086.84;;;44.31;12.24
77019;BME280;66044;53.142;17.962;2023-05-07T06:45:14;102083.31;;;44.59;11.95
77019;BME280;66044;53.142;17.962;2023-05-07T06:47:40;102083.34;;;43.81;11.56
77019;BME280;66044;53.142;17.962;2023-05-07T06:50:07;102084.29;;;43.87;12.50
77019;BME280;66044;53.142;17.962;2023-05-07T06:52:34;102087.36;;;44.83;11.80
77019;BME280;66044;53.142;17.962;2023-05-07T06:55:00;102088.60;;;44.39;11.39
77019;BME280;66044;53.142;17.962;2023-05-07T06:57:26;102085.95;;;44.30;12.22
77019;BME280;66044;53.142;17.962;2023-05-07T06:59:53;102093.56;;;45.34;11.76
77019;BME280;66044;53.142;17.962;2023-05-07T07:02:19;102095.63;;;45.65;10.83
77019;BME280;66044;53.142;17.962;2023-05-07T07:04:46;102097.42;;;45.61;11.33
77019;BME280;66044;53.142;17.962;2023-05-07T07:07:12;102101.89;;;46.24;11.30
77019;BME280;66044;53.142;17.962;2023-05-07T07:09:39;102100.70;;;46.70;10.94
77019;BME280;66044;53.142;17.962;2023-05-07T07:12:05;102104.83;;;47.11;10.53
77019;BME280;66044;53.142;17.962;2023-05-07T07:14:31;102103.70;;;47.06;9.07
77019;BME280;66044;53.142;17.962;2023-05-07T07:16:58;102096.10;;;45.66;9.77
77019;BME280;66044;53.142;17.962;2023-05-07T07:19:25;102094.74;;;44.20;9.82
77019;BME280;66044;53.142;17.962;2023-05-07T07:21:52;102083.86;;;42.32;10.80
77019;BME280;66044;53.142;17.962;2023-05-07T07:24:18;102084.80;;;42.01;11.59
77019;BME280;66044;53.142;17.962;2023-05-07T07:26:45;102086.92;;;43.25;11.52
77019;BME280;66044;53.142;17.962;2023-05-07T07:29:11;102093.02;;;44.42;11.37
77019;BME280;66044;53.142;17.962;2023-05-07T07:31:38;102101.19;;;45.38;10.78
77019;BME280;66044;53.142;17.962;2023-05-07T07:34:04;102100.54;;;45.99;10.18
77019;BME280;66044;53.142;17.962;2023-05-07T07:36:31;102101.79;;;46.24;10.20
77019;BME280;66044;53.142;17.962;2023-05-07T07:38:57;102097.88;;;45.61;10.00
77019;BME280;66044;53.142;17.962;2023-05-07T07:41:24;102097.59;;;45.04;10.25
77019;BME280;66044;53.142;17.962;2023-05-07T07:43:50;102098.23;;;44.85;10.34
77019;BME280;66044;53.142;17.962;2023-05-07T07:46:17;102094.34;;;44.14;10.04
77019;BME280;66044;53.142;17.962;2023-05-07T07:48:43;102093.68;;;43.35;10.04
77019;BME280;66044;53.142;17.962;2023-05-07T07:51:10;102094.55;;;42.12;10.43
77019;BME280;66044;53.142;17.962;2023-05-07T07:53:36;102087.80;;;40.15;10.75
77019;BME280;66044;53.142;17.962;2023-05-07T07:56:03;102082.55;;;37.42;11.72
77019;BME280;66044;53.142;17.962;2023-05-07T07:58:29;102076.27;;;34.40;13.30
77019;BME280;66044;53.142;17.962;2023-05-07T08:00:56;102068.41;;;31.77;14.93
77019;BME280;66044;53.142;17.962;2023-05-07T08:03:22;102063.15;;;29.85;16.02
77019;BME280;66044;53.142;17.962;2023-05-07T08:05:48;102057.83;;;27.55;17.77
77019;BME280;66044;53.142;17.962;2023-05-07T08:08:17;102054.89;;;25.82;19.43
77019;BME280;66044;53.142;17.962;2023-05-07T08:10:43;102054.52;;;24.13;20.97
77019;BME280;66044;53.142;17.962;2023-05-07T08:13:10;102056.44;;;22.83;21.38
77019;BME280;66044;53.142;17.962;2023-05-07T08:15:37;102057.85;;;21.97;22.01
77019;BME280;66044;53.142;17.962;2023-05-07T08:18:03;102055.56;;;21.02;22.69
77019;BME280;66044;53.142;17.962;2023-05-07T08:20:30;102051.47;;;20.12;23.40
77019;BME280;66044;53.142;17.962;2023-05-07T08:22:56;102049.52;;;19.52;24.54
77019;BME280;66044;53.142;17.962;2023-05-07T08:25:23;102050.45;;;19.13;24.83
77019;BME280;66044;53.142;17.962;2023-05-07T08:27:49;102049.81;;;18.75;25.23
77019;BME280;66044;53.142;17.962;2023-05-07T08:30:16;102050.58;;;18.42;25.90
77019;BME280;66044;53.142;17.962;2023-05-07T08:32:42;102050.52;;;18.08;25.98
77019;BME280;66044;53.142;17.962;2023-05-07T08:35:09;102048.08;;;17.72;26.63
77019;BME280;66044;53.142;17.962;2023-05-07T08:37:36;102044.96;;;17.35;27.36
77019;BME280;66044;53.142;17.962;2023-05-07T08:40:03;102050.39;;;17.11;28.03
77019;BME280;66044;53.142;17.962;2023-05-07T08:42:31;102049.16;;;16.77;28.79
77019;BME280;66044;53.142;17.962;2023-05-07T08:44:59;102050.88;;;16.62;28.96
77019;BME280;66044;53.142;17.962;2023-05-07T08:47:29;102052.80;;;16.51;28.79
77019;BME280;66044;53.142;17.962;2023-05-07T08:50:00;102055.59;;;16.41;29.23
77019;BME280;66044;53.142;17.962;2023-05-07T08:52:27;102052.02;;;16.33;29.31
77019;BME280;66044;53.142;17.962;2023-05-07T08:54:54;102057.97;;;16.16;29.55
77019;BME280;66044;53.142;17.962;2023-05-07T08:57:20;102052.89;;;16.07;29.57
77019;BME280;66044;53.142;17.962;2023-05-07T08:59:47;102056.88;;;15.96;29.90
77019;BME280;66044;53.142;17.962;2023-05-07T09:02:14;102056.76;;;15.93;30.00
77019;BME280;66044;53.142;17.962;2023-05-07T09:04:44;102056.84;;;15.87;30.13
77019;BME280;66044;53.142;17.962;2023-05-07T09:07:14;102057.94;;;15.78;30.63
77019;BME280;66044;53.142;17.962;2023-05-07T09:09:46;102059.05;;;15.67;30.83
77019;BME280;66044;53.142;17.962;2023-05-07T09:12:28;102061.59;;;15.37;31.62
77019;BME280;66044;53.142;17.962;2023-05-07T09:14:54;102058.69;;;15.20;31.93
77019;BME280;66044;53.142;17.962;2023-05-07T09:17:21;102055.83;;;15.09;32.33
77019;BME280;66044;53.142;17.962;2023-05-07T09:19:47;102059.23;;;15.04;32.53
77019;BME280;66044;53.142;17.962;2023-05-07T09:22:14;102053.50;;;15.10;32.53
77019;BME280;66044;53.142;17.962;2023-05-07T09:24:40;102057.66;;;15.12;32.61
77019;BME280;66044;53.142;17.962;2023-05-07T09:27:13;102060.00;;;15.20;32.10
77019;BME280;66044;53.142;17.962;2023-05-07T09:29:39;102055.06;;;15.18;32.06
77019;BME280;66044;53.142;17.962;2023-05-07T09:32:07;102053.59;;;15.14;32.30
77019;BME280;66044;53.142;17.962;2023-05-07T09:34:34;102049.46;;;15.10;32.29
77019;BME280;66044;53.142;17.962;2023-05-07T09:37:02;102051.35;;;15.07;32.29
77019;BME280;66044;53.142;17.962;2023-05-07T09:39:45;102059.36;;;15.05;32.50
77019;BME280;66044;53.142;17.962;2023-05-07T09:42:13;102060.78;;;14.98;33.04
77019;BME280;66044;53.142;17.962;2023-05-07T09:44:43;102060.79;;;15.00;32.82
77019;BME280;66044;53.142;17.962;2023-05-07T09:47:10;102060.34;;;14.91;32.71
77019;BME280;66044;53.142;17.962;2023-05-07T09:49:39;102061.71;;;14.89;32.74
77019;BME280;66044;53.142;17.962;2023-05-07T09:52:06;102061.06;;;14.85;33.49
77019;BME280;66044;53.142;17.962;2023-05-07T09:54:35;102063.67;;;14.84;33.23
77019;BME280;66044;53.142;17.962;2023-05-07T09:57:05;102061.23;;;14.75;33.43
77019;BME280;66044;53.142;17.962;2023-05-07T09:59:32;102071.98;;;14.78;33.65
77019;BME280;66044;53.142;17.962;2023-05-07T10:02:01;102075.60;;;14.87;33.57
77019;BME280;66044;53.142;17.962;2023-05-07T10:04:28;102072.66;;;15.01;33.50
77019;BME280;66044;53.142;17.962;2023-05-07T10:06:55;102075.05;;;15.00;34.26
77019;BME280;66044;53.142;17.962;2023-05-07T10:09:22;102072.31;;;14.97;34.14
77019;BME280;66044;53.142;17.962;2023-05-07T10:11:49;102076.80;;;15.03;34.04
77019;BME280;66044;53.142;17.962;2023-05-07T10:14:16;102073.59;;;15.12;34.01
77019;BME280;66044;53.142;17.962;2023-05-07T10:16:43;102071.77;;;15.15;34.02
77019;BME280;66044;53.142;17.962;2023-05-07T10:19:10;102070.75;;;15.21;34.06
77019;BME280;66044;53.142;17.962;2023-05-07T10:21:37;102074.16;;;15.25;34.04
77019;BME280;66044;53.142;17.962;2023-05-07T10:24:05;102073.25;;;15.20;34.66
77019;BME280;66044;53.142;17.962;2023-05-07T10:26:42;102074.55;;;15.18;34.58
77019;BME280;66044;53.142;17.962;2023-05-07T10:29:25;102076.95;;;15.18;34.27
77019;BME280;66044;53.142;17.962;2023-05-07T10:34:56;102080.05;;;14.95;35.36
77019;BME280;66044;53.142;17.962;2023-05-07T10:37:25;102085.60;;;14.87;35.19
77019;BME280;66044;53.142;17.962;2023-05-07T10:39:52;102085.34;;;14.83;34.92
77019;BME280;66044;53.142;17.962;2023-05-07T10:42:18;102074.52;;;14.82;34.86
77019;BME280;66044;53.142;17.962;2023-05-07T10:44:45;102073.34;;;14.88;35.04
77019;BME280;66044;53.142;17.962;2023-05-07T10:47:13;102076.53;;;15.03;35.19
77019;BME280;66044;53.142;17.962;2023-05-07T10:52:16;102071.76;;;14.82;35.54
77019;BME280;66044;53.142;17.962;2023-05-07T10:54:43;102077.05;;;14.74;35.67
77019;BME280;66044;53.142;17.962;2023-05-07T10:57:35;102075.95;;;14.79;35.61
77019;BME280;66044;53.142;17.962;2023-05-07T11:05:32;102076.06;;;15.02;35.43
77019;BME280;66044;53.142;17.962;2023-05-07T11:08:03;102076.49;;;15.05;35.31
77019;BME280;66044;53.142;17.962;2023-05-07T11:10:59;102081.80;;;15.04;35.56
77019;BME280;66044;53.142;17.962;2023-05-07T11:13:45;102079.85;;;15.17;35.37
77019;BME280;66044;53.142;17.962;2023-05-07T11:16:23;102080.48;;;15.35;35.40
77019;BME280;66044;53.142;17.962;2023-05-07T11:18:54;102091.33;;;15.54;35.32
77019;BME280;66044;53.142;17.962;2023-05-07T11:21:37;102092.63;;;15.62;34.99
77019;BME280;66044;53.142;17.962;2023-05-07T11:24:05;102095.52;;;15.62;34.87
77019;BME280;66044;53.142;17.962;2023-05-07T11:26:43;102089.30;;;15.47;34.90
77019;BME280;66044;53.142;17.962;2023-05-07T11:29:12;102083.76;;;15.39;35.00
77019;BME280;66044;53.142;17.962;2023-05-07T11:31:39;102079.69;;;15.42;35.14
77019;BME280;66044;53.142;17.962;2023-05-07T11:34:06;102077.06;;;15.52;35.11
77019;BME280;66044;53.142;17.962;2023-05-07T11:36:33;102081.95;;;15.59;34.94
77019;BME280;66044;53.142;17.962;2023-05-07T11:38:59;102082.30;;;15.66;34.78
77019;BME280;66044;53.142;17.962;2023-05-07T11:41:38;102086.44;;;15.70;34.75
77019;BME280;66044;53.142;17.962;2023-05-07T11:44:04;102079.02;;;15.79;34.91
77019;BME280;66044;53.142;17.962;2023-05-07T11:46:31;102079.70;;;15.87;34.90
77019;BME280;66044;53.142;17.962;2023-05-07T11:49:00;102082.45;;;15.92;34.95
77019;BME280;66044;53.142;17.962;2023-05-07T11:51:26;102087.17;;;15.89;34.98
77019;BME280;66044;53.142;17.962;2023-05-07T11:53:53;102086.42;;;15.95;34.91
77019;BME280;66044;53.142;17.962;2023-05-07T11:56:22;102093.73;;;16.00;34.45
77019;BME280;66044;53.142;17.962;2023-05-07T11:58:49;102086.66;;;15.99;34.38
77019;BME280;66044;53.142;17.962;2023-05-07T12:01:17;102088.77;;;16.02;34.56
77019;BME280;66044;53.142;17.962;2023-05-07T12:03:45;102091.36;;;16.02;34.47
77019;BME280;66044;53.142;17.962;2023-05-07T12:06:13;102092.55;;;15.93;34.96
77019;BME280;66044;53.142;17.962;2023-05-07T12:08:41;102092.98;;;15.98;34.85
77019;BME280;66044;53.142;17.962;2023-05-07T12:11:12;102092.20;;;16.10;34.95
77019;BME280;66044;53.142;17.962;2023-05-07T12:13:38;102094.73;;;16.15;34.56
77019;BME280;66044;53.142;17.962;2023-05-07T12:16:06;102087.05;;;16.03;34.31
77019;BME280;66044;53.142;17.962;2023-05-07T12:18:34;102091.75;;;16.00;34.68
77019;BME280;66044;53.142;17.962;2023-05-07T12:21:02;102093.85;;;16.01;34.43
77019;BME280;66044;53.142;17.962;2023-05-07T12:23:29;102096.09;;;15.77;34.61
77019;BME280;66044;53.142;17.962;2023-05-07T12:25:56;102093.88;;;15.56;34.67
77019;BME280;66044;53.142;17.962;2023-05-07T12:28:22;102090.53;;;15.59;34.55
77019;BME280;66044;53.142;17.962;2023-05-07T12:30:50;102085.66;;;15.57;34.34
77019;BME280;66044;53.142;17.962;2023-05-07T12:33:18;102093.61;;;15.46;34.01
77019;BME280;66044;53.142;17.962;2023-05-07T12:35:45;102091.05;;;15.36;33.66
77019;BME280;66044;53.142;17.962;2023-05-07T12:38:15;102091.56;;;15.33;33.23
77019;BME280;66044;53.142;17.962;2023-05-07T12:40:47;102092.48;;;15.20;32.99
77019;BME280;66044;53.142;17.962;2023-05-07T12:43:21;102093.61;;;15.12;33.20
77019;BME280;66044;53.142;17.962;2023-05-07T12:45:50;102087.82;;;15.12;33.50
77019;BME280;66044;53.142;17.962;2023-05-07T12:48:19;102090.08;;;15.12;33.55
77019;BME280;66044;53.142;17.962;2023-05-07T12:50:45;102087.92;;;15.09;33.65
77019;BME280;66044;53.142;17.962;2023-05-07T12:53:15;102088.89;;;15.02;33.81
77019;BME280;66044;53.142;17.962;2023-05-07T12:55:46;102086.05;;;15.00;33.97